sensor_id;sensor_type;location;lat;lon;timestamp;P1;durP1;ratioP1;P2;durP2;ratioP2
42096;SDS011;27754;45.414;11.084;2023-05-01T00:00:25;2.80;;;1.67;;
42096;SDS011;27754;45.414;11.084;2023-05-01T00:02:52;2.83;;;1.75;;
42096;SDS011;27754;45.414;11.084;2023-05-01T00:05:20;3.60;;;1.73;;
42096;SDS011;27754;45.414;11.084;2023-05-01T00:07:46;4.85;;;2.00;;
42096;SDS011;27754;45.414;11.084;2023-05-01T00:10:13;3.25;;;2.10;;
42096;SDS011;27754;45.414;11.084;2023-05-01T00:12:40;3.35;;;2.10;;
42096;SDS011;27754;45.414;11.084;2023-05-01T00:15:07;5.22;;;2.10;;
42096;SDS011;27754;45.414;11.084;2023-05-01T00:17:35;5.05;;;2.33;;
42096;SDS011;27754;45.414;11.084;2023-05-01T00:20:02;2.80;;;2.30;;
42096;SDS011;27754;45.414;11.084;2023-05-01T00:22:30;6.18;;;2.40;;
42096;SDS011;27754;45.414;11.084;2023-05-01T00:24:57;3.22;;;2.30;;
42096;SDS011;27754;45.414;11.084;2023-05-01T00:27:24;3.65;;;2.67;;
42096;SDS011;27754;45.414;11.084;2023-05-01T00:29:51;4.38;;;2.95;;
42096;SDS011;27754;45.414;11.084;2023-05-01T00:32:18;4.38;;;3.30;;
42096;SDS011;27754;45.414;11.084;2023-05-01T00:34:45;4.57;;;3.30;;
42096;SDS011;27754;45.414;11.084;2023-05-01T00:37:13;5.65;;;3.08;;
42096;SDS011;27754;45.414;11.084;2023-05-01T00:39:42;6.28;;;3.40;;
42096;SDS011;27754;45.414;11.084;2023-05-01T00:42:09;4.97;;;3.10;;
42096;SDS011;27754;45.414;11.084;2023-05-01T00:44:36;4.78;;;3.15;;
42096;SDS011;27754;45.414;11.084;2023-05-01T00:47:02;6.03;;;3.20;;
42096;SDS011;27754;45.414;11.084;2023-05-01T00:49:30;3.25;;;2.47;;
42096;SDS011;27754;45.414;11.084;2023-05-01T00:51:57;3.63;;;2.90;;
42096;SDS011;27754;45.414;11.084;2023-05-01T00:54:24;3.00;;;2.20;;
42096;SDS011;27754;45.414;11.084;2023-05-01T00:56:55;7.10;;;2.38;;
42096;SDS011;27754;45.414;11.084;2023-05-01T00:59:22;2.95;;;1.88;;
42096;SDS011;27754;45.414;11.084;2023-05-01T01:01:49;4.15;;;2.90;;
42096;SDS011;27754;45.414;11.084;2023-05-01T01:04:20;4.38;;;2.78;;
42096;SDS011;27754;45.414;11.084;2023-05-01T01:17:55;3.38;;;2.50;;
42096;SDS011;27754;45.414;11.084;2023-05-01T01:34:12;4.32;;;3.13;;
42096;SDS011;27754;45.414;11.084;2023-05-01T01:36:48;4.88;;;3.05;;
42096;SDS011;27754;45.414;11.084;2023-05-01T01:39:46;4.10;;;2.70;;
42096;SDS011;27754;45.414;11.084;2023-05-01T01:42:29;4.15;;;2.97;;
42096;SDS011;27754;45.414;11.084;2023-05-01T01:45:04;4.78;;;2.80;;
42096;SDS011;27754;45.414;11.084;2023-05-01T01:47:38;5.68;;;3.05;;
42096;SDS011;27754;45.414;11.084;2023-05-01T01:50:08;4.35;;;3.08;;
42096;SDS011;27754;45.414;11.084;2023-05-01T01:52:37;4.95;;;3.13;;
42096;SDS011;27754;45.414;11.084;2023-05-01T01:55:07;7.00;;;2.63;;
42096;SDS011;27754;45.414;11.084;2023-05-01T01:57:37;3.38;;;2.72;;
42096;SDS011;27754;45.414;11.084;2023-05-01T02:00:07;4.22;;;3.13;;
42096;SDS011;27754;45.414;11.084;2023-05-01T02:02:42;5.57;;;3.22;;
42096;SDS011;27754;45.414;11.084;2023-05-01T02:05:12;4.45;;;3.08;;
42096;SDS011;27754;45.414;11.084;2023-05-01T02:07:42;3.97;;;3.17;;
42096;SDS011;27754;45.414;11.084;2023-05-01T02:10:13;5.28;;;3.72;;
42096;SDS011;27754;45.414;11.084;2023-05-01T02:12:41;4.40;;;3.38;;
42096;SDS011;27754;45.414;11.084;2023-05-01T02:15:12;5.05;;;3.30;;
42096;SDS011;27754;45.414;11.084;2023-05-01T02:17:41;6.95;;;4.00;;
42096;SDS011;27754;45.414;11.084;2023-05-01T02:20:09;5.70;;;3.92;;
42096;SDS011;27754;45.414;11.084;2023-05-01T02:22:41;4.57;;;3.35;;
42096;SDS011;27754;45.414;11.084;2023-05-01T02:25:11;5.30;;;3.40;;
42096;SDS011;27754;45.414;11.084;2023-05-01T02:27:47;4.40;;;3.38;;
42096;SDS011;27754;45.414;11.084;2023-05-01T02:30:21;3.45;;;2.90;;
42096;SDS011;27754;45.414;11.084;2023-05-01T02:32:47;5.13;;;3.88;;
42096;SDS011;27754;45.414;11.084;2023-05-01T02:35:14;5.63;;;3.70;;
42096;SDS011;27754;45.414;11.084;2023-05-01T02:37:43;5.13;;;3.58;;
42096;SDS011;27754;45.414;11.084;2023-05-01T02:40:11;5.60;;;3.88;;
42096;SDS011;27754;45.414;11.084;2023-05-01T02:42:41;5.75;;;3.65;;
42096;SDS011;27754;45.414;11.084;2023-05-01T02:45:17;4.40;;;3.30;;
42096;SDS011;27754;45.414;11.084;2023-05-01T02:47:47;5.15;;;3.90;;
42096;SDS011;27754;45.414;11.084;2023-05-01T02:50:17;5.28;;;4.00;;
42096;SDS011;27754;45.414;11.084;2023-05-01T02:52:45;6.35;;;3.95;;
42096;SDS011;27754;45.414;11.084;2023-05-01T02:55:30;4.93;;;3.70;;
42096;SDS011;27754;45.414;11.084;2023-05-01T02:57:57;4.78;;;3.45;;
42096;SDS011;27754;45.414;11.084;2023-05-01T03:00:25;5.60;;;3.83;;
42096;SDS011;27754;45.414;11.084;2023-05-01T03:02:52;7.22;;;4.15;;
42096;SDS011;27754;45.414;11.084;2023-05-01T03:05:20;6.57;;;3.97;;
42096;SDS011;27754;45.414;11.084;2023-05-01T03:07:47;4.95;;;3.53;;
42096;SDS011;27754;45.414;11.084;2023-05-01T03:10:14;6.15;;;3.95;;
42096;SDS011;27754;45.414;11.084;2023-05-01T03:12:41;6.30;;;4.18;;
42096;SDS011;27754;45.414;11.084;2023-05-01T03:15:07;6.82;;;4.05;;
42096;SDS011;27754;45.414;11.084;2023-05-01T03:17:35;6.10;;;4.10;;
42096;SDS011;27754;45.414;11.084;2023-05-01T03:20:02;5.30;;;3.90;;
42096;SDS011;27754;45.414;11.084;2023-05-01T03:22:31;7.32;;;3.78;;
42096;SDS011;27754;45.414;11.084;2023-05-01T03:24:58;5.00;;;3.92;;
42096;SDS011;27754;45.414;11.084;2023-05-01T03:27:26;6.00;;;3.72;;
42096;SDS011;27754;45.414;11.084;2023-05-01T03:29:53;4.95;;;3.92;;
42096;SDS011;27754;45.414;11.084;2023-05-01T03:32:21;6.18;;;4.00;;
42096;SDS011;27754;45.414;11.084;2023-05-01T03:34:50;5.53;;;3.83;;
42096;SDS011;27754;45.414;11.084;2023-05-01T03:37:20;5.43;;;3.78;;
42096;SDS011;27754;45.414;11.084;2023-05-01T03:39:48;4.82;;;3.90;;
42096;SDS011;27754;45.414;11.084;2023-05-01T03:42:33;5.45;;;3.75;;
42096;SDS011;27754;45.414;11.084;2023-05-01T03:45:08;4.70;;;3.58;;
42096;SDS011;27754;45.414;11.084;2023-05-01T03:47:35;5.47;;;3.65;;
42096;SDS011;27754;45.414;11.084;2023-05-01T03:50:03;6.40;;;3.97;;
42096;SDS011;27754;45.414;11.084;2023-05-01T03:52:31;5.53;;;3.83;;
42096;SDS011;27754;45.414;11.084;2023-05-01T03:54:59;5.28;;;3.60;;
42096;SDS011;27754;45.414;11.084;2023-05-01T03:57:33;6.60;;;4.00;;
42096;SDS011;27754;45.414;11.084;2023-05-01T04:00:00;4.50;;;3.55;;
42096;SDS011;27754;45.414;11.084;2023-05-01T04:02:29;5.10;;;3.75;;
42096;SDS011;27754;45.414;11.084;2023-05-01T04:04:57;4.82;;;3.65;;
42096;SDS011;27754;45.414;11.084;2023-05-01T04:07:29;4.72;;;3.50;;
42096;SDS011;27754;45.414;11.084;2023-05-01T04:09:56;5.53;;;3.45;;
42096;SDS011;27754;45.414;11.084;2023-05-01T04:12:23;3.97;;;3.35;;
42096;SDS011;27754;45.414;11.084;2023-05-01T04:14:50;5.72;;;3.33;;
42096;SDS011;27754;45.414;11.084;2023-05-01T04:17:18;4.70;;;3.20;;
42096;SDS011;27754;45.414;11.084;2023-05-01T04:19:45;5.60;;;3.20;;
42096;SDS011;27754;45.414;11.084;2023-05-01T04:22:13;4.85;;;3.05;;
42096;SDS011;27754;45.414;11.084;2023-05-01T04:24:40;6.95;;;3.55;;
42096;SDS011;27754;45.414;11.084;2023-05-01T04:27:07;4.30;;;3.35;;
42096;SDS011;27754;45.414;11.084;2023-05-01T04:29:34;5.90;;;3.03;;
42096;SDS011;27754;45.414;11.084;2023-05-01T04:32:01;5.20;;;3.20;;
42096;SDS011;27754;45.414;11.084;2023-05-01T04:34:28;5.35;;;3.67;;
42096;SDS011;27754;45.414;11.084;2023-05-01T04:36:55;5.05;;;3.70;;
42096;SDS011;27754;45.414;11.084;2023-05-01T04:39:22;6.85;;;3.72;;
42096;SDS011;27754;45.414;11.084;2023-05-01T04:41:49;5.10;;;3.50;;
42096;SDS011;27754;45.414;11.084;2023-05-01T04:44:16;5.18;;;3.38;;
42096;SDS011;27754;45.414;11.084;2023-05-01T04:46:43;5.75;;;4.25;;
42096;SDS011;27754;45.414;11.084;2023-05-01T04:49:11;5.32;;;3.88;;
42096;SDS011;27754;45.414;11.084;2023-05-01T04:51:38;5.72;;;3.90;;
42096;SDS011;27754;45.414;11.084;2023-05-01T04:54:08;6.63;;;3.95;;
42096;SDS011;27754;45.414;11.084;2023-05-01T04:56:36;5.40;;;4.03;;
42096;SDS011;27754;45.414;11.084;2023-05-01T04:59:03;7.35;;;4.20;;
42096;SDS011;27754;45.414;11.084;2023-05-01T05:01:30;6.03;;;3.42;;
42096;SDS011;27754;45.414;11.084;2023-05-01T05:03:57;5.53;;;3.58;;
42096;SDS011;27754;45.414;11.084;2023-05-01T05:06:25;5.93;;;3.85;;
42096;SDS011;27754;45.414;11.084;2023-05-01T05:08:53;5.68;;;3.78;;
42096;SDS011;27754;45.414;11.084;2023-05-01T05:11:21;4.90;;;3.58;;
42096;SDS011;27754;45.414;11.084;2023-05-01T05:14:00;5.07;;;3.38;;
42096;SDS011;27754;45.414;11.084;2023-05-01T05:16:28;4.72;;;3.78;;
42096;SDS011;27754;45.414;11.084;2023-05-01T05:18:55;4.80;;;3.47;;
42096;SDS011;27754;45.414;11.084;2023-05-01T05:21:25;6.22;;;3.83;;
42096;SDS011;27754;45.414;11.084;2023-05-01T05:23:55;5.35;;;3.92;;
42096;SDS011;27754;45.414;11.084;2023-05-01T05:26:23;5.47;;;3.67;;
42096;SDS011;27754;45.414;11.084;2023-05-01T05:28:53;8.75;;;3.88;;
42096;SDS011;27754;45.414;11.084;2023-05-01T05:31:20;5.63;;;3.55;;
42096;SDS011;27754;45.414;11.084;2023-05-01T05:33:47;4.93;;;3.60;;
42096;SDS011;27754;45.414;11.084;2023-05-01T05:36:15;6.07;;;3.63;;
42096;SDS011;27754;45.414;11.084;2023-05-01T05:38:42;6.55;;;3.63;;
42096;SDS011;27754;45.414;11.084;2023-05-01T05:41:13;5.65;;;3.75;;
42096;SDS011;27754;45.414;11.084;2023-05-01T05:43:40;5.60;;;4.15;;
42096;SDS011;27754;45.414;11.084;2023-05-01T05:46:07;5.65;;;3.83;;
42096;SDS011;27754;45.414;11.084;2023-05-01T05:48:36;5.20;;;3.88;;
42096;SDS011;27754;45.414;11.084;2023-05-01T05:51:03;5.55;;;4.18;;
42096;SDS011;27754;45.414;11.084;2023-05-01T05:53:30;5.60;;;3.85;;
42096;SDS011;27754;45.414;11.084;2023-05-01T05:55:57;6.97;;;3.95;;
42096;SDS011;27754;45.414;11.084;2023-05-01T05:58:24;5.53;;;4.10;;
42096;SDS011;27754;45.414;11.084;2023-05-01T06:00:51;6.50;;;4.22;;
42096;SDS011;27754;45.414;11.084;2023-05-01T06:03:21;5.68;;;4.13;;
42096;SDS011;27754;45.414;11.084;2023-05-01T06:05:50;5.75;;;4.50;;
42096;SDS011;27754;45.414;11.084;2023-05-01T06:08:18;6.03;;;3.83;;
42096;SDS011;27754;45.414;11.084;2023-05-01T06:10:46;4.85;;;3.90;;
42096;SDS011;27754;45.414;11.084;2023-05-01T06:13:13;6.10;;;4.10;;
42096;SDS011;27754;45.414;11.084;2023-05-01T06:15:46;5.10;;;4.10;;
42096;SDS011;27754;45.414;11.084;2023-05-01T06:18:14;9.68;;;4.38;;
42096;SDS011;27754;45.414;11.084;2023-05-01T06:20:41;6.70;;;4.00;;
42096;SDS011;27754;45.414;11.084;2023-05-01T06:23:08;5.78;;;4.13;;
42096;SDS011;27754;45.414;11.084;2023-05-01T06:25:44;7.82;;;4.80;;
42096;SDS011;27754;45.414;11.084;2023-05-01T06:28:14;6.07;;;3.97;;
42096;SDS011;27754;45.414;11.084;2023-05-01T06:30:41;7.88;;;4.80;;
42096;SDS011;27754;45.414;11.084;2023-05-01T06:33:08;8.85;;;4.68;;
42096;SDS011;27754;45.414;11.084;2023-05-01T06:35:37;7.97;;;4.28;;
42096;SDS011;27754;45.414;11.084;2023-05-01T06:38:05;7.20;;;4.72;;
42096;SDS011;27754;45.414;11.084;2023-05-01T06:40:32;6.63;;;4.28;;
42096;SDS011;27754;45.414;11.084;2023-05-01T06:43:01;5.13;;;3.90;;
42096;SDS011;27754;45.414;11.084;2023-05-01T06:45:28;6.38;;;4.93;;
42096;SDS011;27754;45.414;11.084;2023-05-01T06:47:56;9.52;;;4.35;;
42096;SDS011;27754;45.414;11.084;2023-05-01T06:50:23;5.78;;;4.40;;
42096;SDS011;27754;45.414;11.084;2023-05-01T06:52:50;6.95;;;4.53;;
42096;SDS011;27754;45.414;11.084;2023-05-01T06:55:17;6.72;;;4.40;;
42096;SDS011;27754;45.414;11.084;2023-05-01T06:57:44;5.78;;;4.53;;
42096;SDS011;27754;45.414;11.084;2023-05-01T07:00:11;5.55;;;4.10;;
42096;SDS011;27754;45.414;11.084;2023-05-01T07:02:39;11.05;;;4.45;;
42096;SDS011;27754;45.414;11.084;2023-05-01T07:05:06;7.68;;;4.72;;
42096;SDS011;27754;45.414;11.084;2023-05-01T07:07:33;8.65;;;4.38;;
42096;SDS011;27754;45.414;11.084;2023-05-01T07:10:04;7.55;;;5.10;;
42096;SDS011;27754;45.414;11.084;2023-05-01T07:12:31;6.10;;;4.45;;
42096;SDS011;27754;45.414;11.084;2023-05-01T07:14:58;6.32;;;4.60;;
42096;SDS011;27754;45.414;11.084;2023-05-01T07:17:25;5.10;;;3.95;;
42096;SDS011;27754;45.414;11.084;2023-05-01T07:19:52;8.00;;;4.10;;
42096;SDS011;27754;45.414;11.084;2023-05-01T07:22:19;6.72;;;4.90;;
42096;SDS011;27754;45.414;11.084;2023-05-01T07:24:46;7.03;;;4.55;;
42096;SDS011;27754;45.414;11.084;2023-05-01T07:27:13;6.80;;;4.30;;
42096;SDS011;27754;45.414;11.084;2023-05-01T07:29:40;7.55;;;4.85;;
42096;SDS011;27754;45.414;11.084;2023-05-01T07:32:07;6.93;;;4.75;;
42096;SDS011;27754;45.414;11.084;2023-05-01T07:34:34;8.27;;;4.57;;
42096;SDS011;27754;45.414;11.084;2023-05-01T07:37:01;7.22;;;3.97;;
42096;SDS011;27754;45.414;11.084;2023-05-01T07:39:27;6.05;;;4.47;;
42096;SDS011;27754;45.414;11.084;2023-05-01T07:41:56;5.40;;;4.30;;
42096;SDS011;27754;45.414;11.084;2023-05-01T07:44:23;9.27;;;4.45;;
42096;SDS011;27754;45.414;11.084;2023-05-01T07:46:50;5.07;;;4.03;;
42096;SDS011;27754;45.414;11.084;2023-05-01T07:49:17;5.15;;;4.00;;
42096;SDS011;27754;45.414;11.084;2023-05-01T07:51:44;6.45;;;4.05;;
42096;SDS011;27754;45.414;11.084;2023-05-01T07:54:11;7.22;;;4.07;;
42096;SDS011;27754;45.414;11.084;2023-05-01T07:56:40;5.95;;;4.00;;
42096;SDS011;27754;45.414;11.084;2023-05-01T07:59:07;6.63;;;4.75;;
42096;SDS011;27754;45.414;11.084;2023-05-01T08:01:35;5.55;;;4.00;;
42096;SDS011;27754;45.414;11.084;2023-05-01T08:04:02;6.13;;;4.22;;
42096;SDS011;27754;45.414;11.084;2023-05-01T08:06:29;7.88;;;4.28;;
42096;SDS011;27754;45.414;11.084;2023-05-01T08:08:57;5.90;;;4.30;;
42096;SDS011;27754;45.414;11.084;2023-05-01T08:11:24;6.05;;;4.10;;
42096;SDS011;27754;45.414;11.084;2023-05-01T08:13:52;6.40;;;4.50;;
42096;SDS011;27754;45.414;11.084;2023-05-01T08:16:19;8.30;;;3.72;;
42096;SDS011;27754;45.414;11.084;2023-05-01T08:18:47;7.03;;;4.47;;
42096;SDS011;27754;45.414;11.084;2023-05-01T08:21:14;6.45;;;3.60;;
42096;SDS011;27754;45.414;11.084;2023-05-01T08:23:41;7.22;;;3.97;;
42096;SDS011;27754;45.414;11.084;2023-05-01T08:26:08;7.30;;;3.45;;
42096;SDS011;27754;45.414;11.084;2023-05-01T08:28:35;5.35;;;4.18;;
42096;SDS011;27754;45.414;11.084;2023-05-01T08:31:02;9.00;;;4.05;;
42096;SDS011;27754;45.414;11.084;2023-05-01T08:33:30;5.53;;;4.15;;
42096;SDS011;27754;45.414;11.084;2023-05-01T08:35:56;6.57;;;3.65;;
42096;SDS011;27754;45.414;11.084;2023-05-01T08:38:24;7.28;;;3.65;;
42096;SDS011;27754;45.414;11.084;2023-05-01T08:40:52;4.32;;;3.28;;
42096;SDS011;27754;45.414;11.084;2023-05-01T08:43:19;4.88;;;3.25;;
42096;SDS011;27754;45.414;11.084;2023-05-01T08:45:46;6.68;;;3.83;;
42096;SDS011;27754;45.414;11.084;2023-05-01T08:48:15;4.38;;;3.10;;
42096;SDS011;27754;45.414;11.084;2023-05-01T08:50:44;6.00;;;3.40;;
42096;SDS011;27754;45.414;11.084;2023-05-01T08:53:14;4.18;;;2.90;;
42096;SDS011;27754;45.414;11.084;2023-05-01T08:55:43;4.32;;;3.20;;
42096;SDS011;27754;45.414;11.084;2023-05-01T08:58:13;6.72;;;3.67;;
42096;SDS011;27754;45.414;11.084;2023-05-01T09:00:41;4.80;;;3.00;;
42096;SDS011;27754;45.414;11.084;2023-05-01T09:03:10;4.85;;;3.03;;
42096;SDS011;27754;45.414;11.084;2023-05-01T09:05:39;3.90;;;3.03;;
42096;SDS011;27754;45.414;11.084;2023-05-01T09:08:06;5.47;;;3.03;;
42096;SDS011;27754;45.414;11.084;2023-05-01T09:10:33;3.78;;;2.80;;
42096;SDS011;27754;45.414;11.084;2023-05-01T09:13:08;4.75;;;3.22;;
42096;SDS011;27754;45.414;11.084;2023-05-01T09:15:35;4.10;;;3.20;;
42096;SDS011;27754;45.414;11.084;2023-05-01T09:18:02;5.35;;;3.30;;
42096;SDS011;27754;45.414;11.084;2023-05-01T09:20:30;6.95;;;3.20;;
42096;SDS011;27754;45.414;11.084;2023-05-01T09:22:57;4.55;;;3.17;;
42096;SDS011;27754;45.414;11.084;2023-05-01T09:25:24;5.22;;;3.10;;
42096;SDS011;27754;45.414;11.084;2023-05-01T09:27:51;6.18;;;3.15;;
42096;SDS011;27754;45.414;11.084;2023-05-01T09:30:35;6.85;;;3.15;;
42096;SDS011;27754;45.414;11.084;2023-05-01T09:38:20;4.95;;;3.00;;
42096;SDS011;27754;45.414;11.084;2023-05-01T09:40:48;4.47;;;2.70;;
42096;SDS011;27754;45.414;11.084;2023-05-01T09:43:37;4.63;;;3.60;;
42096;SDS011;27754;45.414;11.084;2023-05-01T09:46:07;8.00;;;3.20;;
42096;SDS011;27754;45.414;11.084;2023-05-01T09:48:36;4.43;;;3.33;;
42096;SDS011;27754;45.414;11.084;2023-05-01T09:51:49;6.28;;;3.25;;
42096;SDS011;27754;45.414;11.084;2023-05-01T09:53:55;4.15;;;3.30;;
42096;SDS011;27754;45.414;11.084;2023-05-01T09:56:24;4.53;;;3.25;;
42096;SDS011;27754;45.414;11.084;2023-05-01T09:58:53;5.35;;;3.47;;
42096;SDS011;27754;45.414;11.084;2023-05-01T10:01:40;5.50;;;3.22;;
42096;SDS011;27754;45.414;11.084;2023-05-01T10:04:08;5.22;;;3.47;;
42096;SDS011;27754;45.414;11.084;2023-05-01T10:06:36;4.68;;;2.90;;
42096;SDS011;27754;45.414;11.084;2023-05-01T10:09:04;5.32;;;3.05;;
42096;SDS011;27754;45.414;11.084;2023-05-01T10:11:46;4.05;;;2.90;;
42096;SDS011;27754;45.414;11.084;2023-05-01T10:14:13;5.72;;;2.53;;
42096;SDS011;27754;45.414;11.084;2023-05-01T10:16:40;4.88;;;2.60;;
42096;SDS011;27754;45.414;11.084;2023-05-01T10:19:07;4.60;;;2.65;;
42096;SDS011;27754;45.414;11.084;2023-05-01T10:21:36;3.83;;;2.60;;
42096;SDS011;27754;45.414;11.084;2023-05-01T10:24:04;4.95;;;2.88;;
42096;SDS011;27754;45.414;11.084;2023-05-01T10:26:35;5.00;;;2.67;;
42096;SDS011;27754;45.414;11.084;2023-05-01T10:29:02;5.82;;;2.60;;
42096;SDS011;27754;45.414;11.084;2023-05-01T10:31:29;3.38;;;2.17;;
42096;SDS011;27754;45.414;11.084;2023-05-01T10:33:58;5.55;;;2.53;;
42096;SDS011;27754;45.414;11.084;2023-05-01T10:36:37;6.00;;;2.83;;
42096;SDS011;27754;45.414;11.084;2023-05-01T10:42:06;4.57;;;2.70;;
42096;SDS011;27754;45.414;11.084;2023-05-01T10:44:40;5.05;;;3.10;;
42096;SDS011;27754;45.414;11.084;2023-05-01T10:50:03;5.97;;;2.80;;
42096;SDS011;27754;45.414;11.084;2023-05-01T10:55:37;4.38;;;2.53;;
42096;SDS011;27754;45.414;11.084;2023-05-01T10:58:04;3.60;;;2.38;;
42096;SDS011;27754;45.414;11.084;2023-05-01T11:00:31;4.28;;;2.45;;
42096;SDS011;27754;45.414;11.084;2023-05-01T11:08:35;4.68;;;2.65;;
42096;SDS011;27754;45.414;11.084;2023-05-01T11:13:58;3.70;;;2.38;;
42096;SDS011;27754;45.414;11.084;2023-05-01T11:24:29;5.07;;;2.67;;
42096;SDS011;27754;45.414;11.084;2023-05-01T11:26:58;5.50;;;2.80;;
42096;SDS011;27754;45.414;11.084;2023-05-01T11:29:31;4.25;;;2.88;;
42096;SDS011;27754;45.414;11.084;2023-05-01T11:31:59;3.38;;;2.47;;
42096;SDS011;27754;45.414;11.084;2023-05-01T11:34:26;6.68;;;2.50;;
42096;SDS011;27754;45.414;11.084;2023-05-01T11:37:00;5.15;;;2.50;;
42096;SDS011;27754;45.414;11.084;2023-05-01T11:39:26;3.22;;;2.28;;
42096;SDS011;27754;45.414;11.084;2023-05-01T11:42:09;4.40;;;2.75;;
42096;SDS011;27754;45.414;11.084;2023-05-01T11:44:36;5.65;;;2.70;;
42096;SDS011;27754;45.414;11.084;2023-05-01T11:47:03;3.13;;;2.30;;
42096;SDS011;27754;45.414;11.084;2023-05-01T11:49:32;5.18;;;2.63;;
42096;SDS011;27754;45.414;11.084;2023-05-01T11:51:59;5.68;;;2.53;;
42096;SDS011;27754;45.414;11.084;2023-05-01T11:54:26;3.40;;;2.42;;
42096;SDS011;27754;45.414;11.084;2023-05-01T11:56:59;4.13;;;2.38;;
42096;SDS011;27754;45.414;11.084;2023-05-01T11:59:26;4.25;;;2.33;;
42096;SDS011;27754;45.414;11.084;2023-05-01T12:01:53;3.80;;;2.15;;
42096;SDS011;27754;45.414;11.084;2023-05-01T12:04:26;4.68;;;2.45;;
42096;SDS011;27754;45.414;11.084;2023-05-01T12:06:57;2.92;;;1.90;;
42096;SDS011;27754;45.414;11.084;2023-05-01T12:09:25;4.03;;;2.03;;
42096;SDS011;27754;45.414;11.084;2023-05-01T12:11:52;2.80;;;2.00;;
42096;SDS011;27754;45.414;11.084;2023-05-01T12:14:20;2.38;;;1.80;;
42096;SDS011;27754;45.414;11.084;2023-05-01T12:16:47;3.58;;;1.83;;
42096;SDS011;27754;45.414;11.084;2023-05-01T12:19:15;2.95;;;1.85;;
42096;SDS011;27754;45.414;11.084;2023-05-01T12:21:42;3.42;;;2.00;;
42096;SDS011;27754;45.414;11.084;2023-05-01T12:24:10;5.47;;;2.08;;
42096;SDS011;27754;45.414;11.084;2023-05-01T12:26:37;5.88;;;2.28;;
42096;SDS011;27754;45.414;11.084;2023-05-01T12:29:05;7.05;;;2.20;;
42096;SDS011;27754;45.414;11.084;2023-05-01T12:31:34;3.92;;;2.20;;
42096;SDS011;27754;45.414;11.084;2023-05-01T12:36:34;3.90;;;1.98;;
42096;SDS011;27754;45.414;11.084;2023-05-01T12:39:06;5.30;;;2.30;;
42096;SDS011;27754;45.414;11.084;2023-05-01T12:41:44;4.47;;;2.17;;
42096;SDS011;27754;45.414;11.084;2023-05-01T12:44:21;2.53;;;1.83;;
42096;SDS011;27754;45.414;11.084;2023-05-01T12:46:55;3.47;;;2.00;;
42096;SDS011;27754;45.414;11.084;2023-05-01T12:49:26;3.10;;;2.20;;
42096;SDS011;27754;45.414;11.084;2023-05-01T12:51:55;4.10;;;1.90;;
42096;SDS011;27754;45.414;11.084;2023-05-01T12:54:26;2.88;;;1.80;;
42096;SDS011;27754;45.414;11.084;2023-05-01T12:57:04;4.13;;;2.00;;
42096;SDS011;27754;45.414;11.084;2023-05-01T12:59:40;3.40;;;2.08;;
42096;SDS011;27754;45.414;11.084;2023-05-01T13:02:09;3.47;;;2.42;;
42096;SDS011;27754;45.414;11.084;2023-05-01T13:04:38;3.08;;;2.00;;
42096;SDS011;27754;45.414;11.084;2023-05-01T13:07:11;2.92;;;2.10;;
42096;SDS011;27754;45.414;11.084;2023-05-01T13:09:55;3.20;;;2.25;;
42096;SDS011;27754;45.414;11.084;2023-05-01T13:12:25;4.00;;;2.63;;
42096;SDS011;27754;45.414;11.084;2023-05-01T13:14:53;4.63;;;2.40;;
42096;SDS011;27754;45.414;11.084;2023-05-01T13:17:23;5.03;;;2.20;;
42096;SDS011;27754;45.414;11.084;2023-05-01T13:19:52;6.43;;;2.72;;
42096;SDS011;27754;45.414;11.084;2023-05-01T13:22:34;3.60;;;2.38;;
42096;SDS011;27754;45.414;11.084;2023-05-01T13:25:16;5.47;;;2.35;;
42096;SDS011;27754;45.414;11.084;2023-05-01T13:27:46;4.97;;;1.92;;
42096;SDS011;27754;45.414;11.084;2023-05-01T13:30:18;6.60;;;2.20;;
42096;SDS011;27754;45.414;11.084;2023-05-01T13:32:48;3.67;;;2.30;;
42096;SDS011;27754;45.414;11.084;2023-05-01T13:35:22;3.08;;;2.38;;
42096;SDS011;27754;45.414;11.084;2023-05-01T13:37:53;3.53;;;2.45;;
42096;SDS011;27754;45.414;11.084;2023-05-01T13:40:26;4.38;;;2.63;;
42096;SDS011;27754;45.414;11.084;2023-05-01T13:42:53;3.70;;;2.42;;
42096;SDS011;27754;45.414;11.084;2023-05-01T13:45:20;3.83;;;2.67;;
42096;SDS011;27754;45.414;11.084;2023-05-01T13:47:48;4.97;;;2.33;;
42096;SDS011;27754;45.414;11.084;2023-05-01T13:50:17;4.85;;;2.30;;
42096;SDS011;27754;45.414;11.084;2023-05-01T13:52:44;5.10;;;2.90;;
42096;SDS011;27754;45.414;11.084;2023-05-01T13:55:11;4.68;;;2.28;;
42096;SDS011;27754;45.414;11.084;2023-05-01T13:57:39;4.55;;;2.22;;
42096;SDS011;27754;45.414;11.084;2023-05-01T14:00:13;3.08;;;2.40;;
42096;SDS011;27754;45.414;11.084;2023-05-01T14:02:45;4.00;;;2.38;;
42096;SDS011;27754;45.414;11.084;2023-05-01T14:05:36;4.40;;;2.58;;
42096;SDS011;27754;45.414;11.084;2023-05-01T14:08:07;5.65;;;2.42;;
42096;SDS011;27754;45.414;11.084;2023-05-01T14:10:34;6.03;;;2.95;;
42096;SDS011;27754;45.414;11.084;2023-05-01T14:13:01;3.72;;;2.40;;
42096;SDS011;27754;45.414;11.084;2023-05-01T14:15:29;4.63;;;2.30;;
42096;SDS011;27754;45.414;11.084;2023-05-01T14:18:03;3.78;;;2.22;;
42096;SDS011;27754;45.414;11.084;2023-05-01T14:20:33;5.85;;;2.20;;
42096;SDS011;27754;45.414;11.084;2023-05-01T14:22:59;4.53;;;2.20;;
42096;SDS011;27754;45.414;11.084;2023-05-01T14:25:27;2.85;;;2.00;;
42096;SDS011;27754;45.414;11.084;2023-05-01T14:27:57;2.97;;;2.10;;
42096;SDS011;27754;45.414;11.084;2023-05-01T14:30:31;4.13;;;2.22;;
42096;SDS011;27754;45.414;11.084;2023-05-01T14:33:00;4.15;;;2.00;;
42096;SDS011;27754;45.414;11.084;2023-05-01T14:35:28;4.82;;;2.10;;
42096;SDS011;27754;45.414;11.084;2023-05-01T14:37:56;3.65;;;2.13;;
42096;SDS011;27754;45.414;11.084;2023-05-01T14:40:32;3.17;;;2.03;;
42096;SDS011;27754;45.414;11.084;2023-05-01T14:43:00;5.50;;;1.98;;
42096;SDS011;27754;45.414;11.084;2023-05-01T14:45:27;3.85;;;1.98;;
42096;SDS011;27754;45.414;11.084;2023-05-01T14:47:55;2.35;;;1.77;;
42096;SDS011;27754;45.414;11.084;2023-05-01T14:50:23;3.92;;;2.20;;
42096;SDS011;27754;45.414;11.084;2023-05-01T14:52:56;4.25;;;2.58;;
42096;SDS011;27754;45.414;11.084;2023-05-01T14:55:25;3.80;;;2.40;;
42096;SDS011;27754;45.414;11.084;2023-05-01T14:57:59;5.25;;;2.10;;
42096;SDS011;27754;45.414;11.084;2023-05-01T15:00:27;5.00;;;2.20;;
42096;SDS011;27754;45.414;11.084;2023-05-01T15:02:54;2.67;;;1.92;;
42096;SDS011;27754;45.414;11.084;2023-05-01T15:05:21;4.13;;;2.42;;
42096;SDS011;27754;45.414;11.084;2023-05-01T15:07:49;3.20;;;2.00;;
42096;SDS011;27754;45.414;11.084;2023-05-01T15:10:17;4.32;;;2.55;;
42096;SDS011;27754;45.414;11.084;2023-05-01T15:12:44;4.32;;;2.13;;
42096;SDS011;27754;45.414;11.084;2023-05-01T15:15:11;3.63;;;2.20;;
42096;SDS011;27754;45.414;11.084;2023-05-01T15:17:38;4.80;;;2.50;;
42096;SDS011;27754;45.414;11.084;2023-05-01T15:20:05;4.55;;;2.33;;
42096;SDS011;27754;45.414;11.084;2023-05-01T15:22:32;7.72;;;2.05;;
42096;SDS011;27754;45.414;11.084;2023-05-01T15:24:59;4.15;;;1.88;;
42096;SDS011;27754;45.414;11.084;2023-05-01T15:27:27;3.00;;;2.10;;
42096;SDS011;27754;45.414;11.084;2023-05-01T15:29:53;3.25;;;1.83;;
42096;SDS011;27754;45.414;11.084;2023-05-01T15:32:20;3.15;;;2.03;;
42096;SDS011;27754;45.414;11.084;2023-05-01T15:34:47;2.92;;;1.80;;
42096;SDS011;27754;45.414;11.084;2023-05-01T15:37:20;2.97;;;2.22;;
42096;SDS011;27754;45.414;11.084;2023-05-01T15:39:50;3.28;;;1.80;;
42096;SDS011;27754;45.414;11.084;2023-05-01T15:42:17;3.03;;;1.73;;